Time;durP1;ratioP1;P1;durP2;ratioP2;P2;SDS_P1;SDS_P2;PMS_P1;PMS_P2;Temp;Humidity;BMP_temperature;BMP_pressure;BME280_temperature;BME280_humidity;BME280_pressure;Samples;Min_cycle;Max_cycle;Signal;HPM_P1;HPM_P2
2022/12/29 00:01:29;;;;;;;0.55;0.55;;;20.80;44.30;;;;;;5031916;28;20356;-55
2022/12/29 00:03:54;;;;;;;1.17;0.50;;;20.80;44.30;;;;;;5015297;28;20036;-55
2022/12/29 00:06:20;;;;;;;0.63;0.45;;;20.80;44.30;;;;;;5048480;28;20033;-57
2022/12/29 00:08:46;;;;;;;0.60;0.50;;;20.80;44.30;;;;;;5049084;28;20021;-55
2022/12/29 00:11:16;;;;;;;0.50;0.40;;;20.80;44.40;;;;;;5049173;28;20162;-56
2022/12/29 00:16:27;;;;;;;0.68;0.60;;;20.80;44.40;;;;;;5048384;28;20053;-52
2022/12/29 00:18:53;;;;;;;1.10;0.60;;;20.80;44.40;;;;;;5048394;28;20057;-56
2022/12/29 00:35:43;;;;;;;0.50;0.40;;;20.80;44.60;;;;;;5048448;28;20124;-51
2022/12/29 00:46:25;;;;;;;1.20;0.70;;;20.70;44.70;;;;;;5048021;28;20040;-56
2022/12/29 00:51:35;;;;;;;1.00;0.57;;;20.70;44.80;;;;;;5048441;28;20033;-53
2022/12/29 00:54:01;;;;;;;1.88;0.60;;;20.70;44.80;;;;;;5032063;28;20021;-55
2022/12/29 00:56:27;;;;;;;0.70;0.50;;;20.70;44.80;;;;;;5046706;28;20107;-57
2022/12/29 00:58:52;;;;;;;0.68;0.50;;;20.70;44.80;;;;;;5049854;28;20028;-54
2022/12/29 01:01:18;;;;;;;0.88;0.50;;;20.70;44.90;;;;;;5049095;28;20401;-54
2022/12/29 01:03:44;;;;;;;0.57;0.45;;;20.60;44.80;;;;;;5033832;28;20021;-54
2022/12/29 01:06:11;;;;;;;0.40;0.40;;;20.60;44.80;;;;;;5052701;28;20135;-57
2022/12/29 01:08:37;;;;;;;0.82;0.50;;;20.60;44.90;;;;;;5035225;28;20021;-59
2022/12/29 01:11:06;;;;;;;0.43;0.40;;;20.60;44.90;;;;;;5051755;28;20028;-55
2022/12/29 01:13:31;;;;;;;0.75;0.52;;;20.60;44.90;;;;;;5051388;28;20043;-57
2022/12/29 01:15:58;;;;;;;0.80;0.40;;;20.60;44.90;;;;;;5050974;28;20384;-53
2022/12/29 01:18:25;;;;;;;1.40;0.45;;;20.60;44.90;;;;;;5034956;28;20380;-53
2022/12/29 01:20:51;;;;;;;0.60;0.40;;;20.60;44.90;;;;;;5033289;28;20128;-57
2022/12/29 01:23:17;;;;;;;0.45;0.43;;;20.60;44.90;;;;;;5034675;28;20497;-56
2022/12/29 01:25:44;;;;;;;0.80;0.40;;;20.60;45.00;;;;;;5052530;28;20036;-52
2022/12/29 01:28:10;;;;;;;0.90;0.50;;;20.60;45.00;;;;;;5051974;28;20016;-56
2022/12/29 01:30:37;;;;;;;0.85;0.50;;;20.60;45.00;;;;;;5035792;28;20025;-57
2022/12/29 01:33:03;;;;;;;0.50;0.40;;;20.60;45.00;;;;;;5052007;28;20032;-51
2022/12/29 01:35:29;;;;;;;0.88;0.50;;;20.60;45.00;;;;;;5034742;28;20051;-54
2022/12/29 01:37:57;;;;;;;1.50;0.30;;;20.50;45.00;;;;;;5030920;28;20116;-56
2022/12/29 01:40:24;;;;;;;1.05;0.30;;;20.60;45.00;;;;;;5035325;28;20021;-55
2022/12/29 01:42:50;;;;;;;0.60;0.40;;;20.50;45.00;;;;;;5051209;28;20055;-57
2022/12/29 01:45:18;;;;;;;0.20;0.20;;;20.50;45.00;;;;;;5034201;28;20440;-56
2022/12/29 01:48:01;;;;;;;0.47;0.30;;;20.50;45.10;;;;;;5049909;28;20040;-57
2022/12/29 01:50:38;;;;;;;0.55;0.40;;;20.50;45.10;;;;;;5032591;28;20087;-54
2022/12/29 01:53:16;;;;;;;1.38;0.50;;;20.50;45.10;;;;;;5050668;28;20017;-53
2022/12/29 01:55:48;;;;;;;0.93;0.40;;;20.50;45.10;;;;;;5052456;28;20041;-53
2022/12/29 01:58:17;;;;;;;0.50;0.20;;;20.50;45.10;;;;;;5029415;28;20464;-54
2022/12/29 02:00:43;;;;;;;1.10;0.43;;;20.50;45.20;;;;;;5036657;28;20081;-57
2022/12/29 02:03:11;;;;;;;0.47;0.40;;;20.50;45.20;;;;;;5050876;28;20037;-55
2022/12/29 02:06:21;;;;;;;0.88;0.45;;;20.50;45.20;;;;;;5034620;28;20032;-57
2022/12/29 02:08:49;;;;;;;0.80;0.55;;;20.50;45.30;;;;;;5050564;28;20033;-53
2022/12/29 02:11:16;;;;;;;0.35;0.30;;;20.50;45.40;;;;;;5052041;28;20041;-56
2022/12/29 02:13:42;;;;;;;0.20;0.20;;;20.50;45.40;;;;;;5049622;28;20466;-56
2022/12/29 02:16:35;;;;;;;0.98;0.40;;;20.50;45.40;;;;;;5051218;28;20060;-56
2022/12/29 02:19:16;;;;;;;0.65;0.40;;;20.50;45.50;;;;;;5035301;28;20064;-57
2022/12/29 02:21:54;;;;;;;0.30;0.30;;;20.40;45.40;;;;;;5031001;28;20401;-55
2022/12/29 02:24:55;;;;;;;0.88;0.30;;;20.50;45.50;;;;;;5032606;28;20449;-52
2022/12/29 02:27:49;;;;;;;0.73;0.30;;;20.40;45.50;;;;;;4990810;28;20091;-52
2022/12/29 02:30:32;;;;;;;0.70;0.30;;;20.40;45.50;;;;;;5033463;28;20044;-55
2022/12/29 02:33:12;;;;;;;0.60;0.30;;;20.40;45.50;;;;;;5049250;28;20036;-56
2022/12/29 02:36:02;;;;;;;1.10;0.40;;;20.40;45.60;;;;;;5033696;28;20366;-54
2022/12/29 02:38:55;;;;;;;0.70;0.30;;;20.40;45.60;;;;;;5048429;28;20049;-57
2022/12/29 02:41:24;;;;;;;0.50;0.30;;;20.30;45.60;;;;;;5031003;28;20029;-53
2022/12/29 02:44:21;;;;;;;0.25;0.25;;;20.40;45.70;;;;;;5051451;28;20025;-55
2022/12/29 02:46:53;;;;;;;0.70;0.30;;;20.40;45.70;;;;;;5050422;28;20116;-55
2022/12/29 02:49:32;;;;;;;0.43;0.30;;;20.40;45.70;;;;;;5050170;28;20421;-57
2022/12/29 02:52:10;;;;;;;0.50;0.30;;;20.40;45.70;;;;;;5029105;28;20121;-54
2022/12/29 02:54:40;;;;;;;0.28;0.20;;;20.40;45.70;;;;;;5030904;28;20056;-55
2022/12/29 02:57:10;;;;;;;0.57;0.35;;;20.40;45.70;;;;;;5031275;28;20037;-55
2022/12/29 02:59:37;;;;;;;0.75;0.25;;;20.40;45.60;;;;;;5049708;28;20029;-55
2022/12/29 03:02:16;;;;;;;0.75;0.30;;;20.40;45.60;;;;;;5032021;28;20346;-57
2022/12/29 03:05:04;;;;;;;0.75;0.40;;;20.40;45.60;;;;;;5034437;28;20077;-54
2022/12/29 03:07:48;;;;;;;1.33;0.43;;;20.30;45.50;;;;;;5049026;28;20679;-54
2022/12/29 03:10:24;;;;;;;0.95;0.40;;;20.30;45.50;;;;;;5032611;28;20043;-54
2022/12/29 03:16:31;;;;;;;1.38;0.50;;;20.30;45.50;;;;;;5030842;28;20136;-55
2022/12/29 03:19:33;;;;;;;0.98;0.40;;;20.30;45.50;;;;;;5052212;28;20064;-56
2022/12/29 03:25:15;;;;;;;1.00;0.30;;;20.30;45.40;;;;;;5030904;28;20037;-54
2022/12/29 03:27:52;;;;;;;0.73;0.30;;;20.30;45.40;;;;;;5028685;28;20047;-57
2022/12/29 03:30:19;;;;;;;0.90;0.30;;;20.30;45.40;;;;;;5032653;28;20083;-58
2022/12/29 03:32:52;;;;;;;0.60;0.30;;;20.30;45.40;;;;;;5031032;28;20036;-58
2022/12/29 03:35:23;;;;;;;0.98;0.40;;;20.30;45.40;;;;;;5034292;28;20025;-54
2022/12/29 03:38:33;;;;;;;1.38;0.40;;;20.30;45.40;;;;;;5031062;28;20025;-56
2022/12/29 03:41:03;;;;;;;0.85;0.50;;;20.30;45.40;;;;;;5020618;28;20738;-56
2022/12/29 03:43:29;;;;;;;1.23;0.20;;;20.30;45.40;;;;;;5032381;28;20448;-59
2022/12/29 03:45:55;;;;;;;0.60;0.32;;;20.20;45.30;;;;;;5034893;28;20024;-58
2022/12/29 03:48:21;;;;;;;0.95;0.30;;;20.20;45.40;;;;;;5030878;28;20364;-57
2022/12/29 03:50:49;;;;;;;1.30;0.40;;;20.30;45.40;;;;;;5030147;28;20431;-54
2022/12/29 03:53:16;;;;;;;0.68;0.40;;;20.20;45.40;;;;;;5030314;28;20032;-55
2022/12/29 03:55:42;;;;;;;0.30;0.20;;;20.20;45.40;;;;;;5031886;28;20036;-53
2022/12/29 03:58:09;;;;;;;1.45;0.40;;;20.20;45.40;;;;;;5030759;28;20108;-56
2022/12/29 04:01:04;;;;;;;0.15;0.15;;;20.20;45.40;;;;;;5036044;28;20035;-57
2022/12/29 04:03:33;;;;;;;0.70;0.28;;;20.20;45.40;;;;;;5031221;28;20021;-51
2022/12/29 04:06:01;;;;;;;1.05;0.30;;;20.20;45.40;;;;;;5032754;28;20091;-56
2022/12/29 04:08:30;;;;;;;1.23;0.30;;;20.20;45.40;;;;;;5030027;28;20361;-56
2022/12/29 04:10:57;;;;;;;1.83;0.30;;;20.20;45.40;;;;;;5032970;28;20436;-54
2022/12/29 04:13:23;;;;;;;0.75;0.40;;;20.20;45.30;;;;;;5030937;28;20055;-56
2022/12/29 04:15:49;;;;;;;0.30;0.20;;;20.20;45.30;;;;;;5032051;28;20152;-54
2022/12/29 04:18:15;;;;;;;0.43;0.20;;;20.20;45.30;;;;;;5030852;28;20044;-57
2022/12/29 04:23:32;;;;;;;0.90;0.30;;;20.20;45.20;;;;;;5031423;28;20033;-57
2022/12/29 04:25:59;;;;;;;0.73;0.32;;;20.20;45.20;;;;;;5032710;28;20440;-57
2022/12/29 04:28:27;;;;;;;0.80;0.40;;;20.20;45.20;;;;;;5028198;28;20021;-56
2022/12/29 04:31:07;;;;;;;0.65;0.30;;;20.20;45.20;;;;;;5032727;28;20033;-57
2022/12/29 04:33:36;;;;;;;0.60;0.30;;;20.20;45.20;;;;;;5030858;28;20032;-55
2022/12/29 04:36:02;;;;;;;0.95;0.30;;;20.20;45.20;;;;;;5030858;28;20037;-54
2022/12/29 04:38:28;;;;;;;0.93;0.30;;;20.20;45.20;;;;;;5051941;28;20032;-55
2022/12/29 04:40:54;;;;;;;1.05;0.40;;;20.20;45.20;;;;;;5035009;28;20556;-54
2022/12/29 04:43:22;;;;;;;0.55;0.43;;;20.20;45.20;;;;;;5034889;28;20040;-57
2022/12/29 04:46:11;;;;;;;1.38;0.50;;;20.20;45.20;;;;;;5035295;28;20422;-55
2022/12/29 04:49:00;;;;;;;1.08;0.35;;;20.20;45.20;;;;;;5035075;28;20329;-53
2022/12/29 04:51:44;;;;;;;0.88;0.30;;;20.20;45.30;;;;;;5051188;28;20130;-55
2022/12/29 04:54:12;;;;;;;0.65;0.40;;;20.20;45.30;;;;;;5033036;28;20117;-51
2022/12/29 04:56:38;;;;;;;0.73;0.22;;;20.20;45.30;;;;;;5034949;28;20036;-55
2022/12/29 04:59:04;;;;;;;0.70;0.30;;;20.10;45.30;;;;;;5035135;28;20029;-54
2022/12/29 05:01:30;;;;;;;0.73;0.30;;;20.10;45.30;;;;;;5032162;28;20475;-54
2022/12/29 05:03:57;;;;;;;1.02;0.40;;;20.10;45.30;;;;;;5052556;28;20108;-53
2022/12/29 05:06:23;;;;;;;0.57;0.38;;;20.10;45.30;;;;;;5033302;28;20792;-55
2022/12/29 05:08:49;;;;;;;1.42;0.40;;;20.10;45.30;;;;;;5035537;28;21369;-55
2022/12/29 05:11:15;;;;;;;0.90;0.30;;;20.10;45.20;;;;;;5033940;28;20112;-53
2022/12/29 05:13:46;;;;;;;0.65;0.40;;;20.10;45.20;;;;;;5034691;28;20409;-54
2022/12/29 05:16:12;;;;;;;1.00;0.30;;;20.10;45.20;;;;;;5033963;28;20029;-56
2022/12/29 05:18:38;;;;;;;1.35;0.50;;;20.10;45.10;;;;;;5035196;28;20041;-54
2022/12/29 05:21:04;;;;;;;0.52;0.20;;;20.10;45.10;;;;;;5033733;28;20025;-54
2022/12/29 05:23:30;;;;;;;1.00;0.38;;;20.10;45.10;;;;;;5052477;28;20021;-52
2022/12/29 05:26:00;;;;;;;2.10;0.43;;;20.10;45.00;;;;;;5035933;28;20025;-53
2022/12/29 05:29:01;;;;;;;1.08;0.30;;;20.10;45.00;;;;;;5008270;28;20068;-55
2022/12/29 05:31:27;;;;;;;0.60;0.28;;;20.10;45.00;;;;;;5023909;28;20036;-53
2022/12/29 05:33:54;;;;;;;1.10;0.25;;;20.10;44.90;;;;;;5033392;28;20082;-54
2022/12/29 05:36:20;;;;;;;1.23;0.43;;;20.10;45.00;;;;;;5014057;28;20049;-56
2022/12/29 05:38:49;;;;;;;0.57;0.30;;;20.10;45.00;;;;;;5034411;28;20652;-55
2022/12/29 05:41:15;;;;;;;0.82;0.20;;;20.00;45.00;;;;;;5018484;28;20551;-55
2022/12/29 05:44:17;;;;;;;1.25;0.43;;;20.10;45.10;;;;;;4990664;28;20056;-58
2022/12/29 05:46:55;;;;;;;1.55;0.47;;;20.10;45.10;;;;;;5040379;28;20424;-57
2022/12/29 05:49:44;;;;;;;0.95;0.40;;;20.00;45.10;;;;;;5049459;28;20134;-54
2022/12/29 05:52:32;;;;;;;0.75;0.30;;;20.00;45.10;;;;;;5022136;28;20123;-57
2022/12/29 05:54:58;;;;;;;0.75;0.30;;;20.00;45.10;;;;;;5034516;28;20036;-54
2022/12/29 05:57:26;;;;;;;1.30;0.35;;;20.00;45.10;;;;;;5033577;28;20041;-53
2022/12/29 06:00:05;;;;;;;1.50;0.50;;;20.10;45.10;;;;;;5033935;28;20123;-52
2022/12/29 06:02:40;;;;;;;0.75;0.40;;;20.00;45.10;;;;;;5049165;28;20457;-54
2022/12/29 06:05:08;;;;;;;0.70;0.40;;;20.00;45.10;;;;;;5033238;28;20052;-54
2022/12/29 06:07:36;;;;;;;0.30;0.10;;;20.00;45.10;;;;;;5029936;28;20040;-55
2022/12/29 06:10:03;;;;;;;1.63;0.43;;;20.00;45.10;;;;;;5033555;28;20071;-56
2022/12/29 06:12:32;;;;;;;0.80;0.30;;;20.00;45.10;;;;;;5030602;28;20037;-56
2022/12/29 06:14:58;;;;;;;1.08;0.30;;;20.00;45.10;;;;;;5034458;28;20028;-55
2022/12/29 06:17:24;;;;;;;0.63;0.32;;;20.00;45.10;;;;;;5034602;28;20480;-55
2022/12/29 06:19:50;;;;;;;0.93;0.32;;;20.00;45.00;;;;;;5033784;28;20016;-55
2022/12/29 06:22:17;;;;;;;1.20;0.45;;;20.00;45.00;;;;;;5033643;28;20047;-55
2022/12/29 06:24:43;;;;;;;0.80;0.35;;;20.00;44.90;;;;;;5032887;28;20383;-55
2022/12/29 06:27:09;;;;;;;1.55;0.60;;;20.00;44.90;;;;;;5030710;28;20021;-56
2022/12/29 06:29:36;;;;;;;1.17;0.40;;;20.00;44.80;;;;;;5033578;28;20029;-52
2022/12/29 06:32:03;;;;;;;1.63;0.40;;;20.00;44.80;;;;;;5051313;28;20041;-55
2022/12/29 06:34:32;;;;;;;0.80;0.30;;;20.00;44.80;;;;;;5033385;28;20039;-53
2022/12/29 06:36:57;;;;;;;1.23;0.40;;;20.00;44.70;;;;;;5030306;28;20116;-55
2022/12/29 06:39:23;;;;;;;0.95;0.40;;;20.00;44.70;;;;;;5050508;28;20116;-52
2022/12/29 06:42:00;;;;;;;1.42;0.50;;;20.00;44.60;;;;;;5033317;28;20029;-57
2022/12/29 06:44:42;;;;;;;1.48;0.40;;;20.00;44.50;;;;;;5033514;28;20457;-55
2022/12/29 06:47:09;;;;;;;1.70;0.68;;;20.00;44.50;;;;;;5051141;28;20033;-54
2022/12/29 06:49:35;;;;;;;1.13;0.43;;;20.00;44.40;;;;;;5050440;28;20017;-56
2022/12/29 06:52:03;;;;;;;1.77;0.47;;;20.00;44.40;;;;;;5052743;28;20831;-53
2022/12/29 06:54:33;;;;;;;1.73;0.60;;;20.00;44.30;;;;;;5049396;28;20522;-56
2022/12/29 06:56:59;;;;;;;1.25;0.40;;;20.00;44.30;;;;;;5052063;28;20056;-56
2022/12/29 06:59:25;;;;;;;0.70;0.32;;;20.00;44.30;;;;;;5049853;28;20025;-56
2022/12/29 07:01:52;;;;;;;2.40;0.50;;;20.00;44.20;;;;;;5050109;28;20025;-54
2022/12/29 07:04:18;;;;;;;1.23;0.45;;;20.00;44.80;;;;;;5047838;28;20039;-57
2022/12/29 07:06:44;;;;;;;1.65;0.43;;;20.00;44.10;;;;;;5050384;28;20104;-56
2022/12/29 07:09:10;;;;;;;1.38;0.50;;;20.00;44.10;;;;;;5048675;28;20017;-56
2022/12/29 07:11:36;;;;;;;1.50;0.40;;;20.00;44.00;;;;;;5048792;28;20441;-54
2022/12/29 07:14:02;;;;;;;2.53;0.50;;;20.00;43.90;;;;;;5046298;28;20048;-57
2022/12/29 07:16:29;;;;;;;2.53;0.50;;;20.00;43.80;;;;;;5051073;28;20044;-56
2022/12/29 07:18:56;;;;;;;3.88;0.50;;;20.00;43.80;;;;;;5050878;28;20045;-56
2022/12/29 07:21:22;;;;;;;2.80;0.82;;;20.00;43.80;;;;;;5053646;28;20711;-55
2022/12/29 07:23:48;;;;;;;2.22;0.47;;;20.00;43.70;;;;;;5035537;28;20025;-52
2022/12/29 07:26:17;;;;;;;1.60;0.52;;;19.90;43.60;;;;;;5050282;28;20099;-55
2022/12/29 07:28:43;;;;;;;2.83;0.52;;;20.00;43.60;;;;;;5030747;28;20036;-55
2022/12/29 07:31:18;;;;;;;1.67;0.82;;;19.90;43.60;;;;;;5050567;28;20043;-52
2022/12/29 07:33:44;;;;;;;;;;;20.00;43.60;;;;;;5052249;28;20025;-54
2022/12/29 07:36:11;;;;;;;2.13;0.70;;;19.90;43.50;;;;;;5047836;28;19916;-56
2022/12/29 07:38:37;;;;;;;1.83;0.43;;;19.90;43.40;;;;;;5050768;28;20035;-56
2022/12/29 07:41:03;;;;;;;0.95;0.40;;;19.90;43.50;;;;;;5054648;28;20029;-56
2022/12/29 07:43:29;;;;;;;2.28;0.50;;;19.90;43.40;;;;;;5057824;28;20024;-54
2022/12/29 07:46:13;;;;;;;1.45;0.50;;;20.00;43.40;;;;;;5032633;28;20082;-56
2022/12/29 07:48:40;;;;;;;1.98;0.68;;;19.90;43.40;;;;;;5050000;28;20032;-54
2022/12/29 07:51:06;;;;;;;1.33;0.43;;;20.00;43.40;;;;;;5052149;28;20178;-56
2022/12/29 07:53:32;;;;;;;1.23;0.40;;;19.90;43.40;;;;;;5057596;28;20017;-56
2022/12/29 07:55:58;;;;;;;1.50;0.60;;;19.90;43.40;;;;;;5053760;28;20472;-53
2022/12/29 07:58:24;;;;;;;2.55;0.60;;;19.90;43.30;;;;;;5052347;28;20459;-53
2022/12/29 08:00:55;;;;;;;2.55;1.20;;;20.00;44.00;;;;;;5053610;28;20041;-57
2022/12/29 08:03:23;;;;;;;1.83;0.60;;;19.90;43.30;;;;;;5053436;28;20064;-55
2022/12/29 08:05:49;;;;;;;1.60;0.75;;;20.00;43.30;;;;;;5033644;28;20036;-54
2022/12/29 08:08:15;;;;;;;1.85;0.63;;;20.00;43.30;;;;;;5052065;28;20478;-53
2022/12/29 08:10:47;;;;;;;1.98;0.60;;;20.00;43.30;;;;;;5054650;28;20033;-54
2022/12/29 08:13:14;;;;;;;2.70;0.80;;;20.00;43.30;;;;;;5057442;28;20025;-54
2022/12/29 08:15:39;;;;;;;1.85;0.60;;;20.00;43.30;;;;;;5055318;28;20124;-55
2022/12/29 08:18:06;;;;;;;1.50;0.60;;;20.10;43.30;;;;;;5047722;28;20132;-56
2022/12/29 08:20:32;;;;;;;2.22;0.55;;;20.10;43.20;;;;;;5030452;28;20047;-55
2022/12/29 08:22:58;;;;;;;1.55;0.45;;;20.20;43.20;;;;;;5045340;28;20046;-56
2022/12/29 08:25:23;;;;;;;2.10;0.43;;;20.20;43.10;;;;;;5047955;28;20490;-54
2022/12/29 08:27:50;;;;;;;1.58;0.43;;;20.30;43.00;;;;;;5046179;28;20084;-53
2022/12/29 08:30:16;;;;;;;1.83;0.50;;;20.30;42.90;;;;;;5046426;28;20038;-53
2022/12/29 08:32:42;;;;;;;3.08;0.75;;;20.40;43.00;;;;;;5047289;28;20041;-55
2022/12/29 08:35:08;;;;;;;1.70;0.60;;;20.50;43.10;;;;;;5045199;28;20025;-51
2022/12/29 08:37:34;;;;;;;2.72;0.88;;;20.60;43.10;;;;;;5046159;28;20414;-54
2022/12/29 08:40:03;;;;;;;1.98;0.68;;;20.60;43.10;;;;;;5046362;28;20017;-55
2022/12/29 08:42:30;;;;;;;2.08;0.80;;;20.70;43.10;;;;;;5047945;28;20017;-56
2022/12/29 08:45:00;;;;;;;1.63;0.57;;;20.70;43.00;;;;;;5049310;28;20028;-53
2022/12/29 08:47:26;;;;;;;1.25;0.60;;;20.80;42.90;;;;;;5054109;28;20025;-54
2022/12/29 08:49:52;;;;;;;2.15;0.50;;;20.90;42.70;;;;;;5053693;28;20059;-54
2022/12/29 08:52:18;;;;;;;2.70;1.02;;;21.00;42.60;;;;;;5054447;28;20029;-58
2022/12/29 08:54:44;;;;;;;1.35;0.50;;;21.00;42.40;;;;;;5054697;28;20343;-57
2022/12/29 08:57:10;;;;;;;2.05;0.70;;;21.10;42.30;;;;;;5037447;28;20045;-54
2022/12/29 08:59:43;;;;;;;2.38;0.80;;;21.20;42.20;;;;;;5035627;28;20056;-56
2022/12/29 09:02:11;;;;;;;4.13;0.68;;;21.20;42.00;;;;;;5038102;28;20028;-56
2022/12/29 09:04:37;;;;;;;2.42;0.70;;;21.30;41.80;;;;;;5054965;28;20028;-55
2022/12/29 09:07:04;;;;;;;5.65;1.00;;;21.40;41.70;;;;;;5044444;28;20036;-58
2022/12/29 09:09:30;;;;;;;2.15;0.73;;;21.40;41.60;;;;;;5029951;28;20064;-58
2022/12/29 09:11:55;;;;;;;2.65;0.90;;;21.50;41.50;;;;;;5046159;28;20034;-55
2022/12/29 09:14:21;;;;;;;2.55;0.70;;;21.50;41.30;;;;;;5055819;28;20037;-57
2022/12/29 09:19:31;;;;;;;3.15;0.90;;;21.60;41.20;;;;;;5051878;28;20055;-54
2022/12/29 09:21:57;;;;;;;4.53;0.77;;;21.70;41.20;;;;;;5045420;28;20029;-55
2022/12/29 09:24:23;;;;;;;1.90;0.55;;;21.70;41.10;;;;;;5045826;28;20053;-56
2022/12/29 09:26:49;;;;;;;3.33;0.77;;;21.80;41.00;;;;;;5053359;28;20029;-57
2022/12/29 09:29:15;;;;;;;2.53;0.75;;;21.80;40.90;;;;;;5055344;28;20032;-54
2022/12/29 09:31:41;;;;;;;3.42;0.90;;;21.90;40.90;;;;;;5055328;28;20134;-54
2022/12/29 09:34:07;;;;;;;2.15;0.60;;;21.90;40.70;;;;;;5038178;28;20100;-57
2022/12/29 09:36:33;;;;;;;1.55;0.60;;;21.90;40.60;;;;;;5055328;28;20037;-57
2022/12/29 09:38:58;;;;;;;3.97;0.88;;;22.00;40.50;;;;;;5055470;28;20059;-55
2022/12/29 09:41:34;;;;;;;1.45;0.60;;;22.10;40.50;;;;;;5055399;28;20056;-57
2022/12/29 09:44:12;;;;;;;2.45;0.80;;;22.10;40.30;;;;;;5054125;28;20396;-57
2022/12/29 09:46:43;;;;;;;3.00;0.73;;;22.10;40.20;;;;;;5054239;28;20025;-57
2022/12/29 09:49:35;;;;;;;2.90;0.73;;;22.20;40.10;;;;;;5037652;28;20093;-55
2022/12/29 09:52:11;;;;;;;2.28;0.80;;;22.20;40.10;;;;;;5036952;28;20098;-57
2022/12/29 09:54:55;;;;;;;3.80;1.00;;;22.20;39.90;;;;;;5054662;28;20103;-58
2022/12/29 09:57:29;;;;;;;2.10;0.77;;;22.30;40.00;;;;;;5053460;28;20044;-54
2022/12/29 10:00:17;;;;;;;3.55;0.90;;;22.30;39.80;;;;;;5055117;28;20041;-58
2022/12/29 10:02:54;;;;;;;2.83;1.00;;;22.30;39.80;;;;;;5054962;28;20360;-55
2022/12/29 10:05:37;;;;;;;3.38;0.70;;;22.40;39.70;;;;;;5037204;28;20032;-58
2022/12/29 10:08:34;;;;;;;2.35;1.05;;;22.40;39.70;;;;;;5054286;28;20047;-53
2022/12/29 10:11:32;;;;;;;2.78;0.73;;;22.40;39.60;;;;;;5054062;28;20104;-52
2022/12/29 10:14:04;;;;;;;4.53;0.90;;;22.40;39.50;;;;;;5053072;28;20029;-54
2022/12/29 10:16:49;;;;;;;2.50;0.90;;;22.50;39.60;;;;;;5053657;28;20071;-56
2022/12/29 10:19:24;;;;;;;2.42;0.90;;;22.50;40.30;;;;;;5013813;28;20033;-56
2022/12/29 10:21:56;;;;;;;1.67;0.85;;;22.50;39.80;;;;;;5014604;28;20064;-58
2022/12/29 10:24:23;;;;;;;2.50;0.90;;;22.50;39.90;;;;;;5017862;28;20453;-57
2022/12/29 10:26:52;;;;;;;2.08;0.75;;;22.50;39.90;;;;;;5014501;28;20022;-56
2022/12/29 10:29:20;;;;;;;2.90;0.63;;;22.50;39.90;;;;;;5013115;28;20054;-56
2022/12/29 10:32:10;;;;;;;1.70;0.60;;;22.60;40.00;;;;;;5009106;28;20018;-53
2022/12/29 10:34:43;;;;;;;1.60;0.65;;;22.60;39.90;;;;;;5009302;28;20334;-57
2022/12/29 10:37:51;;;;;;;2.30;0.65;;;22.60;40.50;;;;;;5011920;28;20052;-56
2022/12/29 10:40:24;;;;;;;1.83;0.70;;;22.60;39.90;;;;;;4993769;28;20098;-56
2022/12/29 10:42:54;;;;;;;1.55;0.65;;;22.60;39.90;;;;;;5014194;28;20033;-58
2022/12/29 10:45:22;;;;;;;2.22;0.70;;;22.60;39.90;;;;;;5016712;28;20029;-57
2022/12/29 10:48:06;;;;;;;1.80;0.65;;;22.60;39.90;;;;;;5012465;28;20030;-57
2022/12/29 10:50:32;;;;;;;1.48;0.70;;;22.60;39.80;;;;;;5014114;28;20124;-55
2022/12/29 10:53:05;;;;;;;2.38;0.90;;;22.60;39.80;;;;;;5010902;28;20029;-55
2022/12/29 10:55:36;;;;;;;2.28;0.82;;;22.60;39.80;;;;;;5012009;28;20068;-59
2022/12/29 10:58:06;;;;;;;3.03;0.73;;;22.60;39.80;;;;;;5008401;28;20089;-54
2022/12/29 11:00:33;;;;;;;2.25;0.80;;;22.60;39.80;;;;;;5021484;28;20044;-60
2022/12/29 11:03:20;;;;;;;2.80;0.70;;;22.60;40.00;;;;;;5008983;28;20034;-62
2022/12/29 11:05:55;;;;;;;3.95;0.63;;;22.60;40.20;;;;;;5015526;28;20118;-58
2022/12/29 11:08:35;;;;;;;2.05;0.68;;;22.60;40.20;;;;;;5009128;28;20046;-58
2022/12/29 11:11:04;;;;;;;1.90;0.80;;;22.60;40.30;;;;;;5017596;28;20413;-57
2022/12/29 11:13:34;;;;;;;2.22;0.73;;;22.60;40.40;;;;;;5010663;28;20088;-59
2022/12/29 11:16:02;;;;;;;1.52;0.50;;;22.60;40.40;;;;;;5014877;28;20385;-54
2022/12/29 11:18:38;;;;;;;1.95;0.65;;;22.60;40.40;;;;;;5039025;28;20052;-52
2022/12/29 11:21:23;;;;;;;1.20;0.50;;;22.70;40.50;;;;;;5048055;28;20021;-53
2022/12/29 11:23:57;;;;;;;1.55;0.45;;;22.60;40.40;;;;;;5046752;28;20040;-55
2022/12/29 11:26:24;;;;;;;1.30;0.55;;;22.70;40.40;;;;;;5049051;28;20056;-57
2022/12/29 11:29:08;;;;;;;2.70;0.65;;;22.70;40.40;;;;;;5053145;28;20021;-59
2022/12/29 11:31:42;;;;;;;2.43;0.80;;;22.70;40.50;;;;;;5052405;28;20111;-58
2022/12/29 11:34:08;;;;;;;1.65;0.40;;;22.60;40.40;;;;;;5017421;28;20279;-53
2022/12/29 11:36:36;;;;;;;3.92;0.98;;;22.60;40.50;;;;;;5052306;28;20029;-54
2022/12/29 11:39:02;;;;;;;2.33;0.70;;;22.70;40.60;;;;;;5052190;28;21815;-54
2022/12/29 11:41:31;;;;;;;2.38;0.70;;;22.70;40.60;;;;;;5049402;28;20108;-54
2022/12/29 11:44:00;;;;;;;2.22;0.80;;;22.70;40.70;;;;;;5057857;28;20017;-57
2022/12/29 11:46:33;;;;;;;3.60;0.80;;;22.70;40.80;;;;;;5052537;28;20039;-53
2022/12/29 11:49:00;;;;;;;3.17;0.80;;;22.70;40.90;;;;;;5052027;28;20032;-63
2022/12/29 11:51:47;;;;;;;2.03;0.75;;;22.70;40.90;;;;;;5057540;28;20032;-58
2022/12/29 11:54:37;;;;;;;1.60;0.70;;;22.80;40.90;;;;;;5052752;28;20479;-57
2022/12/29 11:57:15;;;;;;;3.17;0.70;;;22.80;40.90;;;;;;5055421;28;20041;-58
2022/12/29 11:59:49;;;;;;;1.45;0.60;;;23.00;40.80;;;;;;5033286;28;20033;-59
2022/12/29 12:02:29;;;;;;;2.50;0.60;;;23.00;40.60;;;;;;5047203;28;20044;-55
2022/12/29 12:05:11;;;;;;;2.22;0.75;;;23.10;40.30;;;;;;5056635;28;20033;-59
2022/12/29 12:07:45;;;;;;;3.40;1.00;;;23.30;40.10;;;;;;5048069;28;20116;-57
2022/12/29 12:10:22;;;;;;;2.05;0.80;;;23.30;39.70;;;;;;5049151;28;20037;-55
2022/12/29 12:13:19;;;;;;;2.97;0.90;;;23.40;39.40;;;;;;5028461;28;20033;-59
2022/12/29 12:16:12;;;;;;;3.08;1.00;;;23.50;39.10;;;;;;5027900;28;20053;-57
2022/12/29 12:18:46;;;;;;;2.03;0.80;;;23.60;38.80;;;;;;5019409;28;20125;-54
2022/12/29 12:21:47;;;;;;;2.40;1.10;;;23.60;38.60;;;;;;5028970;28;20512;-57
2022/12/29 12:24:34;;;;;;;3.17;0.98;;;23.70;38.40;;;;;;5002071;28;20042;-58
2022/12/29 12:27:17;;;;;;;2.15;1.00;;;23.80;38.30;;;;;;5029001;28;20026;-56
2022/12/29 12:29:49;;;;;;;3.05;0.90;;;23.80;38.10;;;;;;5033003;28;20040;-55
2022/12/29 12:32:42;;;;;;;2.50;0.80;;;23.80;38.00;;;;;;5028351;28;20045;-58
2022/12/29 12:35:13;;;;;;;2.03;0.80;;;23.90;37.90;;;;;;5029928;28;20021;-56
2022/12/29 12:37:54;;;;;;;2.42;0.73;;;23.90;37.80;;;;;;5029051;28;20046;-56
2022/12/29 12:40:50;;;;;;;2.53;0.90;;;24.00;37.70;;;;;;5028256;28;20037;-61
2022/12/29 12:43:21;;;;;;;2.33;0.80;;;24.00;37.60;;;;;;5027164;28;20112;-58
2022/12/29 12:45:59;;;;;;;3.08;1.05;;;24.00;37.40;;;;;;5030818;28;20454;-57
2022/12/29 12:49:03;;;;;;;2.92;1.00;;;24.00;37.30;;;;;;5032475;28;20030;-56
2022/12/29 12:51:29;;;;;;;2.83;0.80;;;24.00;37.20;;;;;;5031896;28;20037;-58
2022/12/29 12:54:35;;;;;;;1.80;0.75;;;24.10;37.20;;;;;;5032469;28;20440;-58
2022/12/29 12:57:16;;;;;;;2.83;1.00;;;24.10;37.10;;;;;;5028790;28;20064;-58
2022/12/29 12:59:49;;;;;;;2.50;0.90;;;24.10;37.00;;;;;;5034713;28;20033;-57
2022/12/29 13:02:39;;;;;;;1.58;0.70;;;24.10;36.90;;;;;;5037485;28;20056;-56
2022/12/29 13:05:22;;;;;;;2.72;1.13;;;24.10;36.90;;;;;;5031406;28;20064;-57
2022/12/29 13:07:54;;;;;;;6.07;1.38;;;24.10;36.80;;;;;;5021013;28;20033;-55
2022/12/29 13:10:32;;;;;;;2.17;0.88;;;24.10;36.80;;;;;;5033602;28;20476;-56
2022/12/29 13:13:42;;;;;;;2.15;0.85;;;24.20;36.80;;;;;;5037847;28;20071;-57
2022/12/29 13:16:41;;;;;;;3.05;1.02;;;24.10;36.80;;;;;;4996173;28;20050;-56
2022/12/29 13:19:45;;;;;;;3.35;0.90;;;24.20;36.80;;;;;;4986839;28;20128;-58
2022/12/29 13:22:40;;;;;;;3.05;1.10;;;24.20;36.70;;;;;;5057185;28;20040;-57
2022/12/29 13:25:15;;;;;;;3.95;1.05;;;24.20;36.60;;;;;;5037655;28;20038;-56
2022/12/29 13:28:00;;;;;;;1.70;0.80;;;24.20;36.50;;;;;;5037223;28;20112;-58
2022/12/29 13:30:42;;;;;;;5.05;1.00;;;24.20;36.50;;;;;;5037538;28;20034;-56
2022/12/29 13:33:17;;;;;;;3.58;1.10;;;24.30;36.50;;;;;;5037278;28;20026;-56
2022/12/29 13:36:14;;;;;;;3.33;1.08;;;24.20;36.40;;;;;;5037676;28;20040;-58
2022/12/29 13:38:46;;;;;;;2.47;0.95;;;24.20;36.30;;;;;;5037397;28;20049;-55
2022/12/29 13:41:18;;;;;;;2.55;1.08;;;24.20;36.30;;;;;;5037470;28;20030;-55
2022/12/29 13:43:47;;;;;;;3.60;1.10;;;24.30;36.30;;;;;;5037053;28;20068;-57
2022/12/29 13:46:19;;;;;;;2.55;1.10;;;24.30;36.30;;;;;;5037154;28;20029;-58
2022/12/29 13:48:54;;;;;;;2.95;1.20;;;24.20;36.20;;;;;;5037378;28;20029;-57
2022/12/29 13:51:22;;;;;;;3.03;0.90;;;24.30;36.20;;;;;;5037207;28;20029;-59
2022/12/29 13:53:59;;;;;;;3.80;1.30;;;24.30;36.10;;;;;;5036760;28;20062;-59
2022/12/29 13:56:35;;;;;;;4.22;1.30;;;24.30;36.10;;;;;;5035071;28;20048;-57
2022/12/29 13:59:27;;;;;;;3.58;1.10;;;24.30;36.10;;;;;;5037140;28;20245;-54